Time;durP1;ratioP1;P1;durP2;ratioP2;P2;SDS_P1;SDS_P2;PMS_P1;PMS_P2;Temp;Humidity;BMP_temperature;BMP_pressure;BME280_temperature;BME280_humidity;BME280_pressure;Samples;Min_cycle;Max_cycle;Signal;HPM_P1;HPM_P2
2023/01/04 00:01:55;;;;;;;3.13;2.53;;;7.70;1.00;;;;;;5036266;28;20447;-56
2023/01/04 00:04:21;;;;;;;3.73;2.83;;;7.70;1.00;;;;;;5036164;28;20434;-56
2023/01/04 00:06:46;;;;;;;3.03;2.70;;;7.60;1.00;;;;;;5039042;28;20204;-57
2023/01/04 00:09:12;;;;;;;5.13;2.57;;;7.60;1.00;;;;;;5036282;28;20321;-56
2023/01/04 00:11:37;;;;;;;5.27;3.10;;;7.60;1.00;;;;;;5045989;28;20190;-56
2023/01/04 00:14:03;;;;;;;3.27;2.90;;;7.50;1.00;;;;;;5042925;28;20193;-56
2023/01/04 00:16:29;;;;;;;4.37;2.87;;;7.50;1.00;;;;;;5046309;28;20691;-56
2023/01/04 00:18:55;;;;;;;3.17;2.73;;;7.40;1.00;;;;;;5045197;28;20301;-57
2023/01/04 00:21:27;;;;;;;3.87;3.30;;;7.30;1.00;;;;;;5041592;28;20298;-56
2023/01/04 00:23:55;;;;;;;3.67;2.90;;;7.30;1.00;;;;;;5043641;28;20444;-56
2023/01/04 00:26:24;;;;;;;2.90;2.70;;;7.20;1.00;;;;;;5043590;28;20850;-56
2023/01/04 00:28:55;;;;;;;3.03;2.40;;;7.20;1.00;;;;;;5047887;28;20563;-56
2023/01/04 00:31:22;;;;;;;3.73;2.70;;;7.20;1.00;;;;;;5039585;28;20447;-56
2023/01/04 00:33:47;;;;;;;8.53;2.70;;;7.30;1.00;;;;;;5043485;28;20449;-56
2023/01/04 00:36:14;;;;;;;3.20;2.83;;;7.20;1.00;;;;;;5049203;28;20487;-56
2023/01/04 00:38:40;;;;;;;3.40;2.77;;;7.20;1.00;;;;;;5045446;28;20265;-56
2023/01/04 00:41:08;;;;;;;3.57;3.10;;;7.40;1.00;;;;;;5048684;28;20526;-56
2023/01/04 00:43:34;;;;;;;3.83;2.80;;;7.30;1.00;;;;;;5044331;28;20875;-57
2023/01/04 00:46:00;;;;;;;2.97;2.70;;;7.40;1.00;;;;;;5051323;28;20464;-57
2023/01/04 00:48:26;;;;;;;11.53;2.77;;;7.50;1.00;;;;;;5047068;28;20240;-56
2023/01/04 00:50:52;;;;;;;3.00;2.70;;;7.60;1.00;;;;;;5050913;28;20456;-55
2023/01/04 00:53:18;;;;;;;3.10;2.57;;;7.60;1.00;;;;;;5053706;28;20873;-57
2023/01/04 00:55:44;;;;;;;4.20;2.40;;;7.50;1.00;;;;;;5046387;28;20217;-56
2023/01/04 00:58:10;;;;;;;4.60;3.50;;;7.50;1.00;;;;;;5050999;28;20456;-56
2023/01/04 01:00:37;;;;;;;3.57;2.83;;;7.40;1.00;;;;;;5051794;28;20506;-57
2023/01/04 01:03:03;;;;;;;4.30;3.00;;;7.30;1.00;;;;;;5047946;28;20481;-56
2023/01/04 01:05:28;;;;;;;3.30;2.13;;;7.40;1.00;;;;;;5050111;28;20743;-56
2023/01/04 01:07:54;;;;;;;3.97;3.53;;;7.20;1.00;;;;;;5050936;28;20447;-56
2023/01/04 01:10:20;;;;;;;5.80;3.30;;;7.20;1.00;;;;;;5049523;28;20644;-57
2023/01/04 01:12:45;;;;;;;3.23;2.93;;;7.20;1.00;;;;;;5048491;28;20187;-57
2023/01/04 01:15:11;;;;;;;3.23;2.93;;;7.10;1.00;;;;;;5050225;28;20224;-56
2023/01/04 01:17:38;;;;;;;3.17;2.63;;;7.10;1.00;;;;;;5048161;28;20192;-57
2023/01/04 01:20:04;;;;;;;4.57;2.80;;;7.00;1.00;;;;;;5051234;28;20267;-55
2023/01/04 01:22:33;;;;;;;3.90;2.57;;;7.00;1.00;;;;;;5049264;28;20486;-56
2023/01/04 01:24:59;;;;;;;3.40;2.63;;;6.90;1.00;;;;;;5050638;28;20451;-57
2023/01/04 01:27:24;;;;;;;4.60;2.60;;;6.90;1.00;;;;;;5050392;28;20802;-57
2023/01/04 01:29:50;;;;;;;4.40;2.80;;;6.80;1.00;;;;;;5050694;28;20198;-57
2023/01/04 01:32:15;;;;;;;3.60;3.10;;;6.80;1.00;;;;;;5048183;28;20198;-56
2023/01/04 01:34:41;;;;;;;5.50;4.23;;;6.80;1.00;;;;;;5050609;28;20217;-55
2023/01/04 01:37:07;;;;;;;4.47;2.73;;;6.80;1.00;;;;;;5049001;28;20187;-56
2023/01/04 01:39:32;;;;;;;3.47;2.60;;;6.70;1.00;;;;;;5058552;28;20178;-56
2023/01/04 01:41:58;;;;;;;4.43;3.13;;;6.80;1.00;;;;;;5050409;28;20221;-57
2023/01/04 01:44:42;;;;;;;4.17;1.97;;;6.70;1.00;;;;;;5050993;28;20202;-57
2023/01/04 01:47:21;;;;;;;3.00;2.60;;;6.70;1.00;;;;;;5049188;28;20187;-56
2023/01/04 01:49:50;;;;;;;2.80;2.37;;;6.70;1.00;;;;;;5048989;28;20483;-56
2023/01/04 01:52:21;;;;;;;3.10;2.60;;;6.60;1.00;;;;;;5050868;28;20444;-56
2023/01/04 01:54:53;;;;;;;2.30;2.10;;;6.70;1.00;;;;;;5048155;28;20784;-56
2023/01/04 01:57:23;;;;;;;2.83;2.63;;;6.60;1.00;;;;;;5048988;28;20448;-56
2023/01/04 01:59:51;;;;;;;2.73;1.97;;;6.60;1.00;;;;;;5054640;28;20483;-57
2023/01/04 02:02:17;;;;;;;3.87;2.90;;;6.50;1.00;;;;;;5046592;28;20444;-56
2023/01/04 02:04:48;;;;;;;4.07;3.63;;;6.60;1.00;;;;;;5059138;28;21088;-57
2023/01/04 02:07:19;;;;;;;3.93;2.17;;;6.60;1.00;;;;;;5047734;28;20190;-57
2023/01/04 02:09:45;;;;;;;2.80;2.53;;;6.50;1.00;;;;;;5050091;28;21010;-56
2023/01/04 02:12:12;;;;;;;3.23;2.53;;;6.60;1.00;;;;;;5048892;28;20886;-57
2023/01/04 02:14:39;;;;;;;3.10;2.37;;;6.60;1.00;;;;;;5050554;28;20466;-56
2023/01/04 02:17:08;;;;;;;3.90;2.60;;;6.50;1.00;;;;;;5046280;28;20455;-57
2023/01/04 02:19:59;;;;;;;3.00;2.60;;;6.50;1.00;;;;;;5049201;28;20452;-56
2023/01/04 02:22:50;;;;;;;4.60;2.70;;;6.50;1.00;;;;;;5048086;28;20477;-56
2023/01/04 02:25:35;;;;;;;3.53;2.50;;;6.50;1.00;;;;;;5041005;28;20452;-56
2023/01/04 02:28:23;;;;;;;4.17;2.80;;;6.50;1.00;;;;;;5048778;28;20452;-57
2023/01/04 02:31:06;;;;;;;2.27;2.07;;;6.60;1.00;;;;;;5048423;28;20448;-56
2023/01/04 02:33:54;;;;;;;2.83;2.30;;;6.50;1.00;;;;;;5054123;28;20457;-55
2023/01/04 02:36:28;;;;;;;4.40;2.63;;;6.50;1.00;;;;;;5048524;28;20533;-57
2023/01/04 02:38:56;;;;;;;4.27;2.40;;;6.50;1.00;;;;;;5049976;28;20952;-57
2023/01/04 02:41:28;;;;;;;4.30;3.00;;;6.30;1.00;;;;;;5045950;28;20470;-56
2023/01/04 02:50:29;;;;;;;5.13;2.60;;;6.30;1.00;;;;;;5042888;28;20543;-56
2023/01/04 02:50:30;;;;;;;2.87;2.57;;;6.30;1.00;;;;;;5047376;28;20495;-56
2023/01/04 02:53:05;;;;;;;3.13;2.50;;;6.40;1.00;;;;;;5043910;28;20980;-56
2023/01/04 02:56:18;;;;;;;2.97;2.40;;;6.20;1.00;;;;;;5047778;28;20838;-56
2023/01/04 02:59:08;;;;;;;3.93;2.67;;;6.20;1.00;;;;;;5044223;28;20419;-56
2023/01/04 03:07:50;;;;;;;6.50;2.87;;;6.20;1.00;;;;;;5048549;28;20501;-56
2023/01/04 03:10:44;;;;;;;2.50;2.30;;;6.20;1.00;;;;;;5044831;28;20456;-56
2023/01/04 03:13:17;;;;;;;3.80;2.77;;;6.20;1.00;;;;;;5044303;28;20444;-56
2023/01/04 03:15:48;;;;;;;3.33;2.53;;;6.20;1.00;;;;;;5047338;28;20476;-56
2023/01/04 03:18:20;;;;;;;3.10;2.80;;;6.20;1.00;;;;;;5045768;28;20485;-56
2023/01/04 03:20:48;;;;;;;3.40;2.90;;;6.20;1.00;;;;;;5048733;28;21055;-56
2023/01/04 03:36:05;;;;;;;4.87;3.40;;;6.30;1.00;;;;;;5005468;28;20473;-56
2023/01/04 03:48:29;;;;;;;7.27;4.00;;;6.30;1.00;;;;;;5041970;28;20906;-57
2023/01/04 03:51:18;;;;;;;5.20;4.43;;;6.30;1.00;;;;;;5038911;28;20448;-55
2023/01/04 03:54:03;;;;;;;5.60;4.80;;;6.40;1.00;;;;;;5035638;28;20445;-56
2023/01/04 03:56:30;;;;;;;8.03;5.27;;;6.30;1.00;;;;;;5037313;28;20472;-56
2023/01/04 03:58:56;;;;;;;7.00;6.07;;;6.30;1.00;;;;;;5036123;28;20452;-56
2023/01/04 04:01:24;;;;;;;7.67;5.73;;;6.20;1.00;;;;;;5038492;28;20449;-56
2023/01/04 04:09:17;;;;;;;7.20;6.37;;;6.30;1.00;;;;;;5035797;28;20841;-56
2023/01/04 04:11:43;;;;;;;11.87;6.03;;;6.20;1.00;;;;;;5043077;28;20453;-55
2023/01/04 04:14:09;;;;;;;8.03;6.20;;;6.30;1.00;;;;;;5042722;28;20202;-56
2023/01/04 04:16:34;;;;;;;10.00;7.60;;;6.30;1.00;;;;;;5044397;28;20205;-56
2023/01/04 04:19:00;;;;;;;8.67;7.27;;;6.30;1.00;;;;;;5047191;28;20719;-56
2023/01/04 04:21:26;;;;;;;8.50;6.87;;;6.30;1.00;;;;;;5044958;28;20180;-55
2023/01/04 04:23:54;;;;;;;11.70;8.93;;;6.40;1.00;;;;;;5043549;28;20206;-56
2023/01/04 04:26:19;;;;;;;7.83;7.10;;;6.40;1.00;;;;;;5045911;28;20195;-56
2023/01/04 04:28:45;;;;;;;9.13;7.70;;;6.40;1.00;;;;;;5041864;28;20460;-56
2023/01/04 04:31:11;;;;;;;11.67;7.90;;;6.30;1.00;;;;;;5047390;28;20243;-56
2023/01/04 04:33:37;;;;;;;9.90;8.30;;;6.40;1.00;;;;;;5045139;28;20728;-56
2023/01/04 04:36:03;;;;;;;9.60;7.80;;;6.40;1.00;;;;;;5054055;28;20469;-57
2023/01/04 04:38:28;;;;;;;9.47;7.83;;;6.50;1.00;;;;;;5045868;28;21611;-56
2023/01/04 04:43:38;;;;;;;8.23;7.43;;;6.40;1.00;;;;;;5044995;28;20244;-56
2023/01/04 04:46:04;;;;;;;8.33;7.10;;;6.40;1.00;;;;;;5045033;28;20891;-56
2023/01/04 04:48:30;;;;;;;9.13;7.77;;;6.50;1.00;;;;;;5038380;28;20228;-56
2023/01/04 04:50:55;;;;;;;9.37;7.43;;;6.50;1.00;;;;;;5048154;28;22171;-56
2023/01/04 04:53:21;;;;;;;10.20;7.40;;;6.50;1.00;;;;;;5047231;28;20193;-55
2023/01/04 04:55:50;;;;;;;8.60;7.10;;;6.40;1.00;;;;;;5038332;28;20210;-56
2023/01/04 04:58:16;;;;;;;9.13;8.13;;;6.40;1.00;;;;;;5041780;28;20204;-57
2023/01/04 05:00:41;;;;;;;11.10;8.57;;;6.40;1.00;;;;;;5046628;28;20452;-55
2023/01/04 05:03:07;;;;;;;9.20;8.30;;;6.50;1.00;;;;;;5046591;28;20562;-56
2023/01/04 05:05:33;;;;;;;9.90;8.10;;;6.60;1.00;;;;;;5044929;28;20183;-60
2023/01/04 05:07:58;;;;;;;7.90;7.10;;;6.50;1.00;;;;;;5047421;28;20215;-57
2023/01/04 05:10:24;;;;;;;10.23;7.70;;;6.50;1.00;;;;;;5044728;28;20810;-58
2023/01/04 05:12:58;;;;;;;9.80;7.67;;;6.40;1.00;;;;;;5045936;28;20217;-58
2023/01/04 05:15:33;;;;;;;11.27;8.70;;;6.40;1.00;;;;;;5043741;28;20287;-58
2023/01/04 05:18:00;;;;;;;13.60;7.70;;;6.30;1.00;;;;;;5046300;28;20751;-58
2023/01/04 05:20:26;;;;;;;10.77;9.20;;;6.40;1.00;;;;;;5046835;28;20447;-58
2023/01/04 05:22:51;;;;;;;14.30;11.10;;;6.60;1.00;;;;;;5048776;28;20455;-57
2023/01/04 05:25:17;;;;;;;8.93;8.03;;;6.60;1.00;;;;;;5050799;28;20465;-59
2023/01/04 05:27:43;;;;;;;9.27;7.87;;;6.50;1.00;;;;;;5048965;28;20226;-58
2023/01/04 05:32:57;;;;;;;18.87;12.40;;;6.50;1.00;;;;;;5049801;28;20442;-59
2023/01/04 05:35:23;;;;;;;15.33;10.80;;;6.60;1.00;;;;;;5048736;28;20445;-59
2023/01/04 05:37:48;;;;;;;15.07;9.40;;;6.60;1.00;;;;;;5050695;28;20445;-59
2023/01/04 05:40:14;;;;;;;11.17;9.33;;;6.50;1.00;;;;;;5050275;28;20494;-57
2023/01/04 05:42:40;;;;;;;9.50;7.73;;;6.60;1.00;;;;;;5050115;28;20197;-57
2023/01/04 05:45:06;;;;;;;11.83;8.70;;;6.50;1.00;;;;;;5050678;28;20638;-57
2023/01/04 05:47:32;;;;;;;11.33;8.17;;;6.60;1.00;;;;;;5050309;28;20540;-59
2023/01/04 05:49:58;;;;;;;9.70;7.10;;;6.70;1.00;;;;;;5050587;28;20535;-58
2023/01/04 05:52:24;;;;;;;8.80;7.60;;;6.60;1.00;;;;;;5049603;28;20194;-58
2023/01/04 05:54:49;;;;;;;11.77;7.63;;;6.60;1.00;;;;;;5050543;28;20205;-57
2023/01/04 05:57:15;;;;;;;9.40;7.00;;;6.60;1.00;;;;;;5049790;28;20486;-58
2023/01/04 05:59:41;;;;;;;8.57;7.77;;;6.60;1.00;;;;;;5051265;28;20286;-58
2023/01/04 06:02:12;;;;;;;8.83;7.70;;;6.60;1.00;;;;;;5049816;28;20429;-57
2023/01/04 06:04:37;;;;;;;7.90;7.10;;;6.60;1.00;;;;;;5057783;28;20185;-58
2023/01/04 06:07:03;;;;;;;8.17;7.30;;;6.70;1.00;;;;;;5049046;28;20538;-58
2023/01/04 06:09:28;;;;;;;9.20;7.37;;;6.70;1.00;;;;;;5049791;28;20304;-57
2023/01/04 06:11:54;;;;;;;7.73;6.87;;;6.70;1.00;;;;;;5051824;28;20190;-57
2023/01/04 06:14:20;;;;;;;10.87;7.43;;;6.80;1.00;;;;;;5049612;28;20199;-59
2023/01/04 06:16:46;;;;;;;9.63;7.27;;;6.80;1.00;;;;;;5050055;28;20178;-58
2023/01/04 06:19:11;;;;;;;7.20;6.40;;;6.80;1.00;;;;;;5050104;28;20693;-57
2023/01/04 06:21:37;;;;;;;9.30;6.80;;;6.80;1.00;;;;;;5049344;28;20741;-57
2023/01/04 06:24:02;;;;;;;8.23;7.43;;;6.80;1.00;;;;;;5048492;28;20311;-57
2023/01/04 06:26:28;;;;;;;7.57;6.40;;;7.00;1.00;;;;;;5047620;28;20781;-58
2023/01/04 06:28:54;;;;;;;12.37;8.10;;;7.10;1.00;;;;;;5048133;28;20190;-59
2023/01/04 06:31:19;;;;;;;7.37;6.37;;;7.20;1.00;;;;;;5049027;28;20196;-59
2023/01/04 06:33:45;;;;;;;9.70;7.70;;;7.20;1.00;;;;;;5049747;28;20200;-58
2023/01/04 06:36:10;;;;;;;10.73;7.77;;;7.20;1.00;;;;;;5047814;28;20214;-57
2023/01/04 06:38:36;;;;;;;17.17;8.30;;;7.20;1.00;;;;;;5050317;28;20186;-59
2023/01/04 06:41:01;;;;;;;8.00;7.13;;;7.20;1.00;;;;;;5050468;28;20200;-60
2023/01/04 06:43:27;;;;;;;8.03;7.00;;;7.20;1.00;;;;;;5050587;28;20233;-58
2023/01/04 06:45:53;;;;;;;10.03;7.73;;;7.20;1.00;;;;;;5051906;28;20194;-59
2023/01/04 06:48:18;;;;;;;9.43;7.50;;;7.20;1.00;;;;;;5049783;28;20246;-59
2023/01/04 06:50:44;;;;;;;9.57;7.10;;;7.20;1.00;;;;;;5054330;28;20185;-59
2023/01/04 06:53:10;;;;;;;8.80;7.87;;;7.20;1.00;;;;;;5049834;28;20222;-58
2023/01/04 06:55:35;;;;;;;8.33;7.37;;;7.30;1.00;;;;;;5049748;28;20714;-59
2023/01/04 06:58:01;;;;;;;9.07;8.17;;;7.20;1.00;;;;;;5049874;28;20215;-59
2023/01/04 07:00:27;;;;;;;15.53;8.90;;;7.20;1.00;;;;;;5047489;28;20216;-59
2023/01/04 07:02:52;;;;;;;10.33;8.03;;;7.20;1.00;;;;;;5047731;28;20180;-58
2023/01/04 07:05:18;;;;;;;8.63;7.63;;;7.30;1.00;;;;;;5049089;28;20186;-58
2023/01/04 07:07:43;;;;;;;9.50;8.10;;;7.30;1.00;;;;;;5049274;28;20269;-61
2023/01/04 07:10:09;;;;;;;11.57;8.23;;;7.30;1.00;;;;;;5049012;28;20194;-58
2023/01/04 07:12:36;;;;;;;14.03;8.27;;;7.40;1.00;;;;;;5048624;28;20184;-59
2023/01/04 07:15:02;;;;;;;9.60;8.53;;;7.40;1.00;;;;;;5049624;28;20473;-59
2023/01/04 07:17:28;;;;;;;10.20;8.13;;;7.40;1.00;;;;;;5048226;28;20787;-58
2023/01/04 07:19:53;;;;;;;10.43;7.83;;;7.40;1.00;;;;;;5048376;28;20193;-59
2023/01/04 07:22:19;;;;;;;8.47;7.53;;;7.30;1.00;;;;;;5048841;28;20193;-59
2023/01/04 07:24:44;;;;;;;9.07;7.93;;;7.40;1.00;;;;;;5048306;28;20546;-59
2023/01/04 07:27:10;;;;;;;10.37;8.50;;;7.40;1.00;;;;;;5054333;28;20216;-58
2023/01/04 07:29:36;;;;;;;8.80;7.27;;;7.40;1.00;;;;;;5045535;28;20214;-58
2023/01/04 07:32:03;;;;;;;16.50;7.07;;;7.60;1.00;;;;;;5047847;28;20453;-58
2023/01/04 07:34:28;;;;;;;9.80;7.10;;;7.60;1.00;;;;;;5047083;28;20191;-58
2023/01/04 07:36:54;;;;;;;9.57;6.17;;;7.60;1.00;;;;;;5047192;28;20454;-59
2023/01/04 07:39:20;;;;;;;7.80;6.50;;;7.60;1.00;;;;;;5049497;28;20239;-58
2023/01/04 07:41:47;;;;;;;7.43;6.40;;;7.80;1.00;;;;;;5049459;28;20190;-58
2023/01/04 07:44:12;;;;;;;7.60;6.03;;;7.90;1.00;;;;;;5048272;28;20452;-58
2023/01/04 07:46:38;;;;;;;9.17;6.87;;;8.10;1.00;;;;;;5048466;28;20992;-59
2023/01/04 07:49:05;;;;;;;8.70;6.03;;;8.10;1.00;;;;;;5046406;28;20222;-59
2023/01/04 07:51:31;;;;;;;8.07;5.60;;;8.20;1.00;;;;;;5047829;28;20890;-58
2023/01/04 07:53:58;;;;;;;6.13;5.30;;;8.30;1.00;;;;;;5049182;28;20448;-58
2023/01/04 07:56:23;;;;;;;8.60;5.83;;;8.30;1.00;;;;;;5048040;28;21056;-59
2023/01/04 07:58:49;;;;;;;8.50;5.87;;;8.20;1.00;;;;;;5057986;28;20524;-59
2023/01/04 08:01:17;;;;;;;9.77;5.90;;;8.40;1.00;;;;;;5069051;28;20181;-57
2023/01/04 08:03:46;;;;;;;7.77;5.70;;;8.40;1.00;;;;;;5049016;28;20218;-58
2023/01/04 08:06:14;;;;;;;6.23;5.60;;;8.30;1.00;;;;;;5048526;28;20518;-59
2023/01/04 08:08:40;;;;;;;10.70;8.60;;;8.40;1.00;;;;;;5047724;28;20440;-59
2023/01/04 08:11:15;;;;;;;16.60;6.30;;;8.50;1.00;;;;;;5049871;28;20791;-59
2023/01/04 08:13:41;;;;;;;6.33;5.33;;;8.70;1.00;;;;;;5049050;28;20453;-58
2023/01/04 08:16:07;;;;;;;5.20;4.53;;;8.70;1.00;;;;;;5048474;28;20486;-59
2023/01/04 08:18:33;;;;;;;5.80;5.20;;;8.70;1.00;;;;;;5048957;28;20939;-58
2023/01/04 08:21:05;;;;;;;8.53;4.80;;;8.80;1.00;;;;;;5048831;28;20703;-58
2023/01/04 08:23:32;;;;;;;4.70;4.27;;;8.80;1.00;;;;;;5047089;28;20222;-59
2023/01/04 08:26:10;;;;;;;5.20;4.40;;;8.90;1.00;;;;;;5047926;28;20500;-59
2023/01/04 08:28:35;;;;;;;7.03;4.50;;;9.10;1.00;;;;;;5048749;28;20461;-59
2023/01/04 08:31:10;;;;;;;5.17;4.67;;;9.10;1.00;;;;;;5047370;28;20970;-58
2023/01/04 08:33:37;;;;;;;7.20;4.70;;;9.20;1.00;;;;;;5048569;28;20660;-58
2023/01/04 08:36:30;;;;;;;4.60;4.20;;;9.10;1.00;;;;;;5048269;28;20571;-59
2023/01/04 08:39:01;;;;;;;6.73;3.87;;;9.10;1.00;;;;;;5046513;28;20456;-62
2023/01/04 08:41:28;;;;;;;4.63;4.23;;;9.20;1.00;;;;;;5048301;28;21098;-58
2023/01/04 08:43:54;;;;;;;5.37;4.30;;;9.20;1.00;;;;;;5046838;28;20449;-58
2023/01/04 08:46:19;;;;;;;4.47;3.83;;;9.20;1.00;;;;;;5047513;28;20449;-59
2023/01/04 08:48:45;;;;;;;3.80;3.50;;;9.20;1.00;;;;;;5048174;28;20271;-59
2023/01/04 08:51:14;;;;;;;5.40;3.80;;;9.30;1.00;;;;;;5047607;28;20281;-59
2023/01/04 08:53:40;;;;;;;3.97;3.50;;;9.40;1.00;;;;;;5047931;28;20213;-59
2023/01/04 08:56:06;;;;;;;4.73;4.23;;;9.50;1.00;;;;;;5052355;28;20476;-58
2023/01/04 08:58:33;;;;;;;5.03;4.57;;;9.70;1.00;;;;;;5051803;28;20274;-58
2023/01/04 09:01:07;;;;;;;5.03;3.90;;;9.70;1.00;;;;;;5050301;28;20487;-59
2023/01/04 09:03:34;;;;;;;4.43;3.97;;;9.60;1.00;;;;;;5052241;28;20514;-58
2023/01/04 09:06:05;;;;;;;4.00;3.60;;;9.70;1.00;;;;;;5055377;28;20491;-59
2023/01/04 09:08:35;;;;;;;5.03;4.00;;;9.50;1.00;;;;;;5051987;28;20452;-59
2023/01/04 09:11:09;;;;;;;4.43;3.73;;;9.40;1.00;;;;;;5052910;28;20437;-58
2023/01/04 09:13:35;;;;;;;5.30;3.80;;;9.50;1.00;;;;;;5053499;28;20873;-59
2023/01/04 09:16:02;;;;;;;4.33;3.93;;;9.50;1.00;;;;;;5051851;28;20491;-59
2023/01/04 09:18:29;;;;;;;5.57;3.90;;;9.50;1.00;;;;;;5054245;28;20415;-58
2023/01/04 09:20:54;;;;;;;5.00;4.53;;;9.50;1.00;;;;;;5052227;28;20473;-58
2023/01/04 09:23:20;;;;;;;4.23;3.23;;;9.50;1.00;;;;;;5051843;28;20509;-60
2023/01/04 09:25:46;;;;;;;4.40;3.60;;;9.60;1.00;;;;;;5050566;28;20231;-60
2023/01/04 09:28:12;;;;;;;5.37;4.33;;;9.70;1.00;;;;;;5051378;28;20850;-59
2023/01/04 09:30:37;;;;;;;4.20;3.70;;;9.70;1.00;;;;;;5050956;28;20208;-59
2023/01/04 09:33:03;;;;;;;3.00;2.73;;;9.70;1.00;;;;;;5050865;28;20191;-59
2023/01/04 09:35:28;;;;;;;3.90;3.10;;;9.80;1.00;;;;;;5050008;28;20210;-60
2023/01/04 09:37:54;;;;;;;2.37;1.67;;;9.80;1.00;;;;;;5054840;28;20215;-59
2023/01/04 09:40:30;;;;;;;1.83;1.20;;;9.80;1.00;;;;;;5065227;28;20189;-59
2023/01/04 09:42:57;;;;;;;1.93;1.10;;;10.20;1.00;;;;;;5051225;28;20438;-58
2023/01/04 09:45:27;;;;;;;4.00;1.17;;;10.20;1.00;;;;;;5051403;28;20477;-58
2023/01/04 09:48:18;;;;;;;2.20;1.03;;;10.40;1.00;;;;;;5050981;28;20519;-58
2023/01/04 09:51:01;;;;;;;1.93;0.80;;;10.30;1.00;;;;;;5050526;28;20421;-58
2023/01/04 09:53:32;;;;;;;1.00;0.90;;;10.30;1.00;;;;;;5054294;28;20519;-59
2023/01/04 09:56:29;;;;;;;1.77;0.90;;;10.40;1.00;;;;;;5051289;28;20444;-58
2023/01/04 09:58:56;;;;;;;1.63;0.63;;;10.40;1.00;;;;;;5049476;28;20460;-60
2023/01/04 10:01:40;;;;;;;0.80;0.67;;;10.60;1.00;;;;;;5049150;28;20449;-59
2023/01/04 10:04:12;;;;;;;0.83;0.80;;;10.70;1.00;;;;;;5049350;28;20463;-59
2023/01/04 10:06:38;;;;;;;1.47;0.60;;;10.60;1.00;;;;;;5050011;28;20453;-59
2023/01/04 10:09:11;;;;;;;1.10;0.77;;;10.60;1.00;;;;;;5049979;28;20506;-61
2023/01/04 10:11:58;;;;;;;0.60;0.60;;;10.80;1.00;;;;;;5049125;28;20438;-58
2023/01/04 10:14:26;;;;;;;1.40;0.70;;;10.80;1.00;;;;;;5049054;28;20456;-58
2023/01/04 10:17:16;;;;;;;1.20;0.90;;;11.00;1.00;;;;;;5049662;28;20458;-60
2023/01/04 10:20:11;;;;;;;1.90;0.80;;;11.00;1.00;;;;;;5049584;28;20969;-59
2023/01/04 10:22:56;;;;;;;2.17;0.93;;;10.90;1.00;;;;;;5050698;28;20443;-61
2023/01/04 10:25:28;;;;;;;0.53;0.53;;;10.90;1.00;;;;;;5050829;28;20438;-59
2023/01/04 10:28:11;;;;;;;1.40;0.67;;;10.70;1.00;;;;;;5050261;28;20498;-59
2023/01/04 10:30:43;;;;;;;1.57;0.70;;;10.80;1.00;;;;;;5050694;28;20940;-58
2023/01/04 10:33:14;;;;;;;1.20;0.83;;;10.80;1.00;;;;;;5049822;28;20412;-60
2023/01/04 10:35:42;;;;;;;4.00;2.50;;;10.90;1.00;;;;;;5050330;28;20514;-59
2023/01/04 10:38:16;;;;;;;1.27;1.10;;;10.90;1.00;;;;;;5049791;28;20976;-59
2023/01/04 10:40:45;;;;;;;6.20;3.73;;;10.80;1.00;;;;;;5050039;28;20874;-58
2023/01/04 10:43:22;;;;;;;1.70;1.17;;;10.80;1.00;;;;;;5048902;28;20435;-59
2023/01/04 10:46:04;;;;;;;1.47;1.00;;;10.80;1.00;;;;;;5050086;28;20436;-59
2023/01/04 10:48:55;;;;;;;0.80;0.70;;;10.80;1.00;;;;;;5049507;28;20493;-61
2023/01/04 10:51:33;;;;;;;3.27;1.73;;;10.70;1.00;;;;;;5048050;28;20449;-59
2023/01/04 10:54:30;;;;;;;1.67;1.57;;;10.60;1.00;;;;;;5049689;28;20448;-59
2023/01/04 10:57:08;;;;;;;3.13;2.90;;;10.60;1.00;;;;;;5049770;28;20495;-60
2023/01/04 10:59:34;;;;;;;3.40;2.90;;;10.70;1.00;;;;;;5050351;28;20441;-60
2023/01/04 11:02:29;;;;;;;2.30;0.77;;;10.60;1.00;;;;;;5049603;28;20935;-59
2023/01/04 11:05:19;;;;;;;2.00;1.40;;;10.70;1.00;;;;;;5048781;28;20459;-58
2023/01/04 11:08:02;;;;;;;3.77;1.83;;;10.60;1.00;;;;;;5049306;28;20456;-59
2023/01/04 11:10:35;;;;;;;1.03;0.70;;;10.60;1.00;;;;;;5049601;28;20440;-59
2023/01/04 11:13:01;;;;;;;1.83;0.90;;;10.70;1.00;;;;;;5049551;28;20462;-59
2023/01/04 11:15:28;;;;;;;1.40;0.80;;;10.70;1.00;;;;;;5049493;28;20525;-60
2023/01/04 11:17:54;;;;;;;2.30;0.77;;;10.60;1.00;;;;;;5049499;28;20464;-59
2023/01/04 11:20:20;;;;;;;1.63;1.03;;;10.70;1.00;;;;;;5051923;28;20475;-57
2023/01/04 11:22:56;;;;;;;0.90;0.80;;;10.80;1.00;;;;;;5053335;28;20399;-55
2023/01/04 11:25:23;;;;;;;1.13;0.90;;;10.90;1.00;;;;;;5066926;28;20213;-58
2023/01/04 11:28:22;;;;;;;1.13;0.83;;;10.70;1.00;;;;;;5066847;28;20434;-56
2023/01/04 11:31:00;;;;;;;1.00;0.90;;;10.90;1.00;;;;;;5052891;28;20866;-57
2023/01/04 11:36:48;;;;;;;1.30;0.90;;;10.90;1.00;;;;;;5047976;28;20507;-55
2023/01/04 11:39:25;;;;;;;1.87;0.80;;;11.00;1.00;;;;;;5049472;28;20431;-55
2023/01/04 11:42:03;;;;;;;0.93;0.83;;;10.90;1.00;;;;;;5049339;28;20169;-55
2023/01/04 11:44:33;;;;;;;2.67;1.07;;;10.90;1.00;;;;;;5049153;28;20443;-55
2023/01/04 11:47:18;;;;;;;1.73;1.17;;;11.00;1.00;;;;;;5048936;28;20445;-54
2023/01/04 11:49:44;;;;;;;1.20;1.10;;;11.00;1.00;;;;;;5047775;28;20471;-55
2023/01/04 11:52:33;;;;;;;1.73;1.40;;;11.00;1.00;;;;;;5049244;28;20485;-54
2023/01/04 11:55:25;;;;;;;1.50;1.30;;;11.00;1.00;;;;;;5049364;28;20455;-54
2023/01/04 11:58:14;;;;;;;1.80;1.20;;;11.00;1.00;;;;;;5049502;28;21095;-54
2023/01/04 12:00:56;;;;;;;2.83;0.97;;;10.90;1.00;;;;;;5047941;28;20473;-56
2023/01/04 12:03:33;;;;;;;1.77;1.37;;;10.90;1.00;;;;;;5048971;28;20519;-54
2023/01/04 12:05:59;;;;;;;1.10;1.00;;;11.10;1.00;;;;;;5048980;28;20487;-55
2023/01/04 12:08:35;;;;;;;2.00;1.40;;;11.10;1.00;;;;;;5049178;28;20793;-55
2023/01/04 12:11:03;;;;;;;1.20;1.10;;;11.10;1.00;;;;;;5049161;28;20587;-54
2023/01/04 12:13:31;;;;;;;2.23;1.53;;;11.10;1.00;;;;;;5049161;28;21071;-55
2023/01/04 12:15:59;;;;;;;1.10;1.10;;;11.20;1.00;;;;;;5047449;28;20584;-54
2023/01/04 12:18:28;;;;;;;1.50;1.00;;;11.10;1.00;;;;;;5049166;28;20440;-54
2023/01/04 12:20:56;;;;;;;1.20;1.10;;;12.10;1.00;;;;;;5049195;28;20425;-55
2023/01/04 12:23:22;;;;;;;4.50;1.57;;;11.10;1.00;;;;;;5048963;28;20984;-55
2023/01/04 12:25:52;;;;;;;1.63;1.30;;;11.20;1.00;;;;;;5048651;28;20441;-55
2023/01/04 12:28:32;;;;;;;1.60;1.20;;;11.20;1.00;;;;;;5047655;28;20461;-54
2023/01/04 12:31:20;;;;;;;1.57;1.20;;;11.10;1.00;;;;;;5052705;28;20902;-56
2023/01/04 12:33:50;;;;;;;2.27;1.10;;;10.90;1.00;;;;;;5052793;28;20461;-56
2023/01/04 12:36:40;;;;;;;2.10;2.00;;;11.10;1.00;;;;;;5052700;28;20464;-55
2023/01/04 12:39:12;;;;;;;1.20;1.10;;;11.20;1.00;;;;;;5052792;28;20520;-55
2023/01/04 12:41:38;;;;;;;3.87;1.70;;;11.30;1.00;;;;;;5052101;28;20477;-54
2023/01/04 12:44:35;;;;;;;2.33;1.30;;;11.20;1.00;;;;;;5052966;28;20523;-55
2023/01/04 12:50:15;;;;;;;1.30;1.20;;;11.20;1.00;;;;;;5052412;28;20449;-55
2023/01/04 12:52:42;;;;;;;4.10;2.00;;;11.20;1.00;;;;;;5052404;28;20424;-54
2023/01/04 12:55:40;;;;;;;2.00;0.97;;;11.10;1.00;;;;;;5052488;28;20997;-56
2023/01/04 12:58:27;;;;;;;1.13;1.00;;;11.10;1.00;;;;;;5031573;28;20433;-54
2023/01/04 13:00:52;;;;;;;3.70;1.43;;;11.00;1.00;;;;;;5052475;28;20499;-55
2023/01/04 13:03:18;;;;;;;1.50;1.30;;;11.10;1.00;;;;;;5052438;28;20431;-54
2023/01/04 13:06:01;;;;;;;1.77;1.23;;;11.10;1.00;;;;;;5052427;28;20189;-56
2023/01/04 13:08:32;;;;;;;2.90;2.60;;;11.20;1.00;;;;;;5052096;28;20190;-56
2023/01/04 13:11:00;;;;;;;2.60;1.53;;;11.20;1.00;;;;;;5052099;28;20509;-55
2023/01/04 13:13:37;;;;;;;2.97;1.10;;;11.20;1.00;;;;;;5052047;28;20449;-56
2023/01/04 13:16:28;;;;;;;1.87;1.67;;;11.20;1.00;;;;;;5052076;28;20942;-55
2023/01/04 13:18:56;;;;;;;1.63;1.00;;;11.20;1.00;;;;;;5051987;28;20461;-55
2023/01/04 13:21:30;;;;;;;1.90;1.63;;;11.20;1.00;;;;;;5051147;28;20575;-55
2023/01/04 13:24:02;;;;;;;1.73;1.40;;;11.10;1.00;;;;;;5051391;28;20506;-55
2023/01/04 13:26:44;;;;;;;2.07;1.80;;;11.20;1.00;;;;;;5051859;28;21239;-55
2023/01/04 13:29:24;;;;;;;1.93;1.40;;;11.30;1.00;;;;;;5056917;28;20419;-54
2023/01/04 13:32:10;;;;;;;3.40;1.20;;;11.40;1.00;;;;;;5072137;28;20581;-54
2023/01/04 13:34:52;;;;;;;5.20;2.10;;;11.50;1.00;;;;;;5071939;28;20857;-53
2023/01/04 13:37:24;;;;;;;1.60;1.50;;;11.50;1.00;;;;;;5071703;28;20567;-54
2023/01/04 13:39:58;;;;;;;3.50;1.23;;;11.70;1.00;;;;;;5071919;28;20444;-56
2023/01/04 13:42:29;;;;;;;1.30;1.20;;;11.70;1.00;;;;;;5055860;28;20545;-54
2023/01/04 13:45:36;;;;;;;1.67;1.07;;;11.70;1.00;;;;;;5052989;28;20445;-55
2023/01/04 13:48:12;;;;;;;1.10;1.00;;;11.70;1.00;;;;;;5071525;28;20461;-55
2023/01/04 13:50:45;;;;;;;1.63;1.03;;;11.70;1.00;;;;;;5057935;28;20988;-55
2023/01/04 13:53:26;;;;;;;0.70;0.67;;;11.80;1.00;;;;;;5060478;28;20451;-54
2023/01/04 13:55:54;;;;;;;2.10;0.70;;;11.90;1.00;;;;;;5066860;28;21083;-56
2023/01/04 13:58:22;;;;;;;1.40;0.80;;;12.00;1.00;;;;;;5051395;28;20561;-55
2023/01/04 14:01:02;;;;;;;1.23;0.90;;;12.00;1.00;;;;;;5051145;28;20520;-56
2023/01/04 14:03:33;;;;;;;1.10;1.00;;;12.00;1.00;;;;;;5051536;28;20831;-54
2023/01/04 14:06:13;;;;;;;1.93;0.90;;;12.10;1.00;;;;;;5049681;28;20773;-54
2023/01/04 14:08:45;;;;;;;1.07;0.70;;;12.10;1.00;;;;;;5051613;28;20439;-56
2023/01/04 14:14:29;;;;;;;0.73;0.50;;;12.10;1.00;;;;;;5051366;28;20473;-56
2023/01/04 14:17:14;;;;;;;0.90;0.70;;;12.10;1.00;;;;;;5051102;28;20553;-54